Time;durP1;ratioP1;P1;durP2;ratioP2;P2;SDS_P1;SDS_P2;PMS_P1;PMS_P2;Temp;Humidity;BMP_temperature;BMP_pressure;BME280_temperature;BME280_humidity;BME280_pressure;Samples;Min_cycle;Max_cycle;Signal;HPM_P1;HPM_P2
2023/09/05 00:01:58;;;;;;;2.23;1.20;;;21.20;92.40;;;;;;4943367;29;20983;-78
2023/09/05 00:04:24;;;;;;;2.27;1.40;;;21.20;92.50;;;;;;4952543;29;20214;-78
2023/09/05 00:06:50;;;;;;;3.40;1.20;;;21.20;92.40;;;;;;4944228;29;20252;-78
2023/09/05 00:09:18;;;;;;;2.30;1.00;;;21.10;92.70;;;;;;4951926;29;21203;-77
2023/09/05 00:11:44;;;;;;;2.90;1.10;;;21.10;93.10;;;;;;4948421;29;20180;-78
2023/09/05 00:14:10;;;;;;;2.37;1.30;;;21.10;92.90;;;;;;4916966;29;20994;-78
2023/09/05 00:16:37;;;;;;;2.43;0.90;;;21.10;93.20;;;;;;4952319;29;20590;-77
2023/09/05 00:19:04;;;;;;;2.20;1.10;;;21.10;93.20;;;;;;4951833;29;20173;-78
2023/09/05 00:21:30;;;;;;;3.60;1.40;;;21.10;93.50;;;;;;4934754;29;20595;-77
2023/09/05 00:24:25;;;;;;;3.07;1.20;;;21.10;93.60;;;;;;4939644;29;20592;-78
2023/09/05 00:26:51;;;;;;;2.00;1.20;;;21.10;93.80;;;;;;4925575;29;20184;-77
2023/09/05 00:29:20;;;;;;;2.00;1.10;;;21.10;93.60;;;;;;4934205;29;21056;-77
2023/09/05 00:31:49;;;;;;;2.00;1.00;;;21.00;94.30;;;;;;4934882;29;20642;-77
2023/09/05 00:34:15;;;;;;;2.30;1.20;;;21.10;94.30;;;;;;4951279;29;20576;-77
2023/09/05 00:36:42;;;;;;;3.03;1.77;;;21.10;94.10;;;;;;4917327;29;20593;-77
2023/09/05 00:39:09;;;;;;;2.20;1.10;;;21.10;94.20;;;;;;4947276;29;20599;-78
2023/09/05 00:41:38;;;;;;;2.57;1.00;;;21.10;94.50;;;;;;4935177;29;20615;-77
2023/09/05 00:44:04;;;;;;;2.00;1.23;;;21.10;94.50;;;;;;4952476;29;20599;-76
2023/09/05 00:46:32;;;;;;;1.93;1.30;;;21.10;94.70;;;;;;4944474;28;20596;-77
2023/09/05 00:49:02;;;;;;;2.77;1.20;;;21.10;94.70;;;;;;4909147;29;20659;-77
2023/09/05 00:51:31;;;;;;;2.23;1.50;;;21.10;94.60;;;;;;4959374;29;20584;-77
2023/09/05 00:54:00;;;;;;;1.97;1.00;;;21.10;94.70;;;;;;4936655;29;20593;-77
2023/09/05 00:56:26;;;;;;;3.37;1.37;;;21.10;94.80;;;;;;4944347;28;20599;-77
2023/09/05 00:58:52;;;;;;;3.17;1.07;;;21.10;94.80;;;;;;4945403;29;20950;-77
2023/09/05 01:01:18;;;;;;;3.40;1.43;;;21.10;94.90;;;;;;4944915;29;20574;-77
2023/09/05 01:03:43;;;;;;;2.37;1.30;;;21.10;94.80;;;;;;4953925;29;20233;-77
2023/09/05 01:06:19;;;;;;;2.47;1.20;;;21.10;94.80;;;;;;4904910;29;20741;-77
2023/09/05 01:08:55;;;;;;;4.27;1.20;;;21.00;95.10;;;;;;4955338;29;20195;-77
2023/09/05 01:11:21;;;;;;;2.50;1.10;;;21.00;95.40;;;;;;4955300;29;21242;-77
2023/09/05 01:13:47;;;;;;;2.23;1.10;;;21.00;95.20;;;;;;4954180;29;20972;-76
2023/09/05 01:18:55;;;;;;;2.50;1.23;;;21.00;95.20;;;;;;5495795;23;20728;-78
2023/09/05 01:21:35;;;;;;;2.70;0.97;;;21.00;95.60;;;;;;4923910;29;20619;-78
2023/09/05 01:24:19;;;;;;;2.33;1.00;;;21.00;95.60;;;;;;4920198;29;20278;-78
2023/09/05 01:26:46;;;;;;;1.97;1.00;;;21.00;95.50;;;;;;4927538;29;20651;-78
2023/09/05 01:29:15;;;;;;;1.90;1.00;;;21.00;95.60;;;;;;4934879;29;20673;-78
2023/09/05 01:31:45;;;;;;;2.23;1.07;;;21.10;95.50;;;;;;4950819;28;20948;-78
2023/09/05 01:34:11;;;;;;;2.20;1.20;;;21.10;95.50;;;;;;4918640;28;20592;-78
2023/09/05 01:36:38;;;;;;;2.33;1.10;;;21.10;95.60;;;;;;4922904;28;21390;-78
2023/09/05 01:39:04;;;;;;;1.77;1.00;;;21.10;95.60;;;;;;4943330;28;20629;-77
2023/09/05 01:41:29;;;;;;;2.67;1.23;;;21.10;95.70;;;;;;4908567;29;20195;-78
2023/09/05 01:43:56;;;;;;;3.10;1.00;;;21.10;95.90;;;;;;4920451;28;20576;-79
2023/09/05 01:46:21;;;;;;;3.30;1.30;;;21.10;96.00;;;;;;4925414;29;20759;-78
2023/09/05 01:48:47;;;;;;;3.03;0.90;;;21.10;95.70;;;;;;4934704;28;20212;-78
2023/09/05 01:51:13;;;;;;;2.00;1.00;;;21.10;95.80;;;;;;4938236;28;20695;-78
2023/09/05 01:53:38;;;;;;;1.60;1.00;;;21.10;95.60;;;;;;4915263;29;20671;-78
2023/09/05 01:56:04;;;;;;;2.00;1.17;;;21.10;95.70;;;;;;4921357;29;20173;-77
2023/09/05 01:58:30;;;;;;;3.70;1.47;;;21.20;95.70;;;;;;4925206;29;20248;-78
2023/09/05 02:01:01;;;;;;;1.80;1.00;;;21.20;95.80;;;;;;4937076;29;20178;-78
2023/09/05 02:03:27;;;;;;;1.77;1.00;;;21.20;95.70;;;;;;4909424;29;20659;-78
2023/09/05 02:05:53;;;;;;;2.70;1.10;;;21.10;95.60;;;;;;4935933;28;20947;-79
2023/09/05 02:08:18;;;;;;;2.50;0.90;;;21.20;95.70;;;;;;4921675;28;20687;-78
2023/09/05 02:10:45;;;;;;;2.90;1.20;;;21.20;95.80;;;;;;4920166;29;20205;-78
2023/09/05 02:13:12;;;;;;;2.00;1.00;;;21.20;95.70;;;;;;4923191;28;20267;-78
2023/09/05 02:15:38;;;;;;;2.20;1.10;;;21.20;95.70;;;;;;4935175;28;20599;-79
2023/09/05 02:18:10;;;;;;;1.80;0.80;;;21.20;95.70;;;;;;4926406;29;20651;-78
2023/09/05 02:20:45;;;;;;;2.63;1.00;;;21.20;95.70;;;;;;4932853;28;20611;-78
2023/09/05 02:23:11;;;;;;;2.13;1.17;;;21.20;95.70;;;;;;4929420;28;20591;-79
2023/09/05 02:25:36;;;;;;;3.73;1.07;;;21.20;95.70;;;;;;4940983;28;20678;-79
2023/09/05 02:28:02;;;;;;;1.70;1.00;;;21.20;95.70;;;;;;4942272;28;20251;-79
2023/09/05 02:30:29;;;;;;;2.63;1.00;;;21.20;95.60;;;;;;4935250;28;20216;-79
2023/09/05 02:32:56;;;;;;;1.90;0.93;;;21.20;95.70;;;;;;4921372;29;20695;-78
2023/09/05 02:35:28;;;;;;;1.63;1.00;;;21.20;95.60;;;;;;4941142;29;20751;-79
2023/09/05 02:37:55;;;;;;;3.10;1.20;;;21.20;95.70;;;;;;4948923;28;20599;-79
2023/09/05 02:40:21;;;;;;;2.97;1.00;;;21.20;95.70;;;;;;4947363;28;20592;-79
2023/09/05 02:42:47;;;;;;;2.37;1.17;;;21.20;95.70;;;;;;4939866;29;20611;-76
2023/09/05 02:45:13;;;;;;;2.87;1.10;;;21.20;95.70;;;;;;4956763;28;20687;-76
2023/09/05 02:47:40;;;;;;;2.20;1.30;;;21.20;95.70;;;;;;4958901;28;20188;-76
2023/09/05 02:50:07;;;;;;;2.50;1.00;;;21.20;95.60;;;;;;4957693;29;20648;-76
2023/09/05 02:52:37;;;;;;;2.93;1.53;;;21.20;95.70;;;;;;4926072;28;20588;-75
2023/09/05 02:55:03;;;;;;;1.73;0.90;;;21.10;95.70;;;;;;4922836;29;20659;-75
2023/09/05 02:57:29;;;;;;;1.90;0.87;;;21.10;95.60;;;;;;4930536;28;20588;-75
2023/09/05 02:59:55;;;;;;;2.30;0.90;;;21.10;95.70;;;;;;4922122;29;20643;-75
2023/09/05 03:02:22;;;;;;;1.83;1.00;;;21.10;95.80;;;;;;4949172;28;20659;-75
2023/09/05 03:04:52;;;;;;;2.60;1.20;;;21.00;95.70;;;;;;4923753;29;20593;-75
2023/09/05 03:07:21;;;;;;;2.20;1.10;;;21.00;95.80;;;;;;4935212;28;20595;-75
2023/09/05 03:09:51;;;;;;;1.60;0.80;;;21.00;95.90;;;;;;4940557;29;20706;-75
2023/09/05 03:12:17;;;;;;;1.90;1.00;;;21.00;95.90;;;;;;4929461;29;20580;-75
2023/09/05 03:14:45;;;;;;;2.70;1.20;;;20.90;95.80;;;;;;4922113;29;20588;-75
2023/09/05 03:17:11;;;;;;;3.40;1.10;;;20.90;95.90;;;;;;4937375;28;20180;-75
2023/09/05 03:19:39;;;;;;;4.43;1.23;;;20.90;96.00;;;;;;4932654;29;20722;-75
2023/09/05 03:22:05;;;;;;;2.77;1.10;;;20.90;96.20;;;;;;4944520;28;20602;-75
2023/09/05 03:24:33;;;;;;;3.10;1.10;;;20.90;96.10;;;;;;4937635;29;20596;-75
2023/09/05 03:26:58;;;;;;;2.37;1.10;;;20.90;96.10;;;;;;4936175;29;20584;-75
2023/09/05 03:29:24;;;;;;;2.40;1.10;;;20.90;96.10;;;;;;4935988;29;21293;-75
2023/09/05 03:31:52;;;;;;;2.63;1.10;;;20.90;96.10;;;;;;4936552;29;20207;-75
2023/09/05 03:34:18;;;;;;;2.07;1.23;;;20.90;96.20;;;;;;4932902;29;21196;-75
2023/09/05 03:36:44;;;;;;;2.17;0.90;;;20.90;96.30;;;;;;4931538;29;20592;-75
2023/09/05 03:39:09;;;;;;;2.63;1.10;;;20.90;96.20;;;;;;4957808;28;20212;-74
2023/09/05 03:41:36;;;;;;;2.47;1.00;;;20.90;96.30;;;;;;4941514;29;20201;-75
2023/09/05 03:44:01;;;;;;;3.10;1.00;;;20.90;96.30;;;;;;4954131;28;20595;-75
2023/09/05 03:46:27;;;;;;;2.13;0.90;;;20.90;96.30;;;;;;4939603;28;20180;-74
2023/09/05 03:48:55;;;;;;;1.97;1.13;;;20.90;96.30;;;;;;4956779;29;20272;-76
2023/09/05 03:51:21;;;;;;;2.83;1.30;;;20.90;96.30;;;;;;4962611;28;20205;-75
2023/09/05 03:53:47;;;;;;;2.13;0.90;;;20.90;96.30;;;;;;4953492;29;20588;-75
2023/09/05 03:56:13;;;;;;;3.30;1.10;;;20.90;96.30;;;;;;4969462;28;20596;-75
2023/09/05 03:58:39;;;;;;;3.60;1.03;;;20.90;96.40;;;;;;4941593;29;20652;-74
2023/09/05 04:01:12;;;;;;;2.13;1.00;;;20.90;96.70;;;;;;4935008;28;20172;-74
2023/09/05 04:03:38;;;;;;;2.37;1.37;;;20.90;96.40;;;;;;4936818;29;20592;-75
2023/09/05 04:06:04;;;;;;;2.33;1.03;;;20.90;96.30;;;;;;4911758;29;21155;-76
2023/09/05 04:08:30;;;;;;;1.80;1.10;;;20.90;96.40;;;;;;4928988;29;20639;-74
2023/09/05 04:11:00;;;;;;;2.33;1.30;;;20.90;96.40;;;;;;4927732;29;20184;-74
2023/09/05 04:13:27;;;;;;;2.63;1.40;;;20.90;96.50;;;;;;4938908;28;20251;-76
2023/09/05 04:15:53;;;;;;;2.70;0.90;;;20.90;96.40;;;;;;4959848;28;20753;-76
2023/09/05 04:18:19;;;;;;;4.13;1.00;;;20.90;96.40;;;;;;4951347;28;20623;-77
2023/09/05 04:20:45;;;;;;;1.97;0.90;;;20.90;96.40;;;;;;4939047;28;20682;-78
2023/09/05 04:23:11;;;;;;;2.03;1.20;;;20.90;96.40;;;;;;4954907;28;20184;-77
2023/09/05 04:25:40;;;;;;;5.57;1.13;;;20.80;96.50;;;;;;4934053;28;20207;-77
2023/09/05 04:28:08;;;;;;;2.83;1.17;;;20.80;96.50;;;;;;4942366;28;20631;-76
2023/09/05 04:30:35;;;;;;;2.10;1.20;;;20.80;96.50;;;;;;4941233;29;20639;-75
2023/09/05 04:33:03;;;;;;;2.33;1.10;;;20.80;96.80;;;;;;4939762;29;20597;-76
2023/09/05 04:35:29;;;;;;;3.03;1.30;;;20.80;96.50;;;;;;4921314;29;20593;-75
2023/09/05 04:37:55;;;;;;;2.37;1.47;;;20.80;96.50;;;;;;4929066;28;20658;-76
2023/09/05 04:40:21;;;;;;;3.90;1.10;;;20.80;96.60;;;;;;4932246;29;20613;-76
2023/09/05 04:42:47;;;;;;;1.97;0.90;;;20.80;96.60;;;;;;4962649;28;20624;-76
2023/09/05 04:45:13;;;;;;;2.33;1.77;;;20.80;96.70;;;;;;4958548;28;20594;-76
2023/09/05 04:47:39;;;;;;;2.80;1.20;;;20.80;96.90;;;;;;4949619;28;20215;-75
2023/09/05 04:50:05;;;;;;;2.10;1.10;;;20.80;96.80;;;;;;4948547;28;20663;-76
2023/09/05 04:52:31;;;;;;;2.10;1.07;;;20.80;96.90;;;;;;4958379;28;20176;-76
2023/09/05 04:54:59;;;;;;;1.70;0.90;;;20.80;96.80;;;;;;4951940;29;21183;-76
2023/09/05 04:57:25;;;;;;;2.87;1.10;;;20.80;96.80;;;;;;4952928;28;20669;-78
2023/09/05 04:59:57;;;;;;;2.53;1.10;;;20.80;96.70;;;;;;4941807;29;20724;-78
2023/09/05 05:02:27;;;;;;;3.17;1.10;;;20.90;96.80;;;;;;4952218;28;20599;-78
2023/09/05 05:04:53;;;;;;;4.20;1.10;;;20.80;96.70;;;;;;4933754;28;20592;-78
2023/09/05 05:07:20;;;;;;;3.17;1.30;;;20.80;96.70;;;;;;4954392;28;20724;-78
2023/09/05 05:09:47;;;;;;;5.60;1.80;;;20.80;96.80;;;;;;4937691;28;20718;-78
2023/09/05 05:12:13;;;;;;;3.40;1.27;;;20.80;96.90;;;;;;4954542;28;20592;-78
2023/09/05 05:14:39;;;;;;;2.17;1.30;;;20.90;96.90;;;;;;4949670;28;20589;-78
2023/09/05 05:17:06;;;;;;;3.13;1.50;;;20.90;96.90;;;;;;4950203;28;20618;-78
2023/09/05 05:19:32;;;;;;;3.43;2.00;;;20.90;97.00;;;;;;4933864;29;20636;-78
2023/09/05 05:21:58;;;;;;;3.33;1.30;;;20.90;97.00;;;;;;4919466;29;20612;-78
2023/09/05 05:24:24;;;;;;;2.53;1.10;;;20.90;96.90;;;;;;4923221;28;20604;-78
2023/09/05 05:26:50;;;;;;;4.00;1.33;;;21.00;97.00;;;;;;4957984;28;20599;-78
2023/09/05 05:29:16;;;;;;;4.50;2.10;;;21.00;96.90;;;;;;4920572;29;20664;-78
2023/09/05 05:31:42;;;;;;;2.60;1.27;;;21.00;97.00;;;;;;4936789;29;20581;-78
2023/09/05 05:34:08;;;;;;;4.50;1.87;;;21.00;97.10;;;;;;4926257;29;20228;-78
2023/09/05 05:36:34;;;;;;;5.30;1.53;;;21.10;97.10;;;;;;4920482;29;20588;-78
2023/09/05 05:39:01;;;;;;;3.60;1.60;;;21.10;97.10;;;;;;4952397;28;20659;-78
2023/09/05 05:41:27;;;;;;;5.40;2.73;;;21.10;97.00;;;;;;4948373;28;20226;-78
2023/09/05 05:43:53;;;;;;;3.10;1.40;;;21.10;97.10;;;;;;4955972;28;20612;-79
2023/09/05 05:46:19;;;;;;;5.07;1.47;;;21.20;97.10;;;;;;4954906;28;20666;-76
2023/09/05 05:48:45;;;;;;;4.23;1.50;;;21.20;97.10;;;;;;4945269;28;21003;-77
2023/09/05 05:51:12;;;;;;;4.37;1.80;;;21.10;97.20;;;;;;4943676;28;20196;-78
2023/09/05 05:53:38;;;;;;;4.70;1.40;;;21.10;97.20;;;;;;4963863;28;20856;-77
2023/09/05 05:56:04;;;;;;;4.37;1.30;;;21.20;97.20;;;;;;4947469;28;20588;-76
2023/09/05 05:58:30;;;;;;;2.87;1.00;;;21.20;97.20;;;;;;4937678;29;20665;-77
2023/09/05 06:00:57;;;;;;;3.60;1.70;;;21.30;97.30;;;;;;4910522;29;21158;-77
2023/09/05 06:03:23;;;;;;;4.50;1.90;;;21.30;97.30;;;;;;4957772;28;20632;-77
2023/09/05 06:05:50;;;;;;;6.50;1.87;;;21.30;97.20;;;;;;4932054;29;20968;-76
2023/09/05 06:08:17;;;;;;;5.80;1.93;;;21.40;97.30;;;;;;4936723;29;21182;-77
2023/09/05 06:10:43;;;;;;;3.20;1.63;;;21.40;97.40;;;;;;4938056;29;20636;-76
2023/09/05 06:13:09;;;;;;;3.40;1.93;;;21.50;97.30;;;;;;4919517;28;20581;-76
2023/09/05 06:15:35;;;;;;;4.83;1.90;;;21.50;97.30;;;;;;4937720;28;21163;-77
2023/09/05 06:18:02;;;;;;;3.80;1.90;;;21.60;97.30;;;;;;4945947;28;20595;-76
2023/09/05 06:20:32;;;;;;;5.10;2.20;;;21.70;97.40;;;;;;4921755;29;20603;-76
2023/09/05 06:22:59;;;;;;;3.87;1.50;;;21.70;97.30;;;;;;4945813;29;20596;-76
2023/09/05 06:25:25;;;;;;;5.20;1.83;;;21.80;97.30;;;;;;4938023;29;20639;-77
2023/09/05 06:27:51;;;;;;;2.60;1.10;;;21.90;97.30;;;;;;4944706;29;21163;-76
2023/09/05 06:30:16;;;;;;;4.27;1.60;;;22.00;97.30;;;;;;4953251;28;20630;-76
2023/09/05 06:32:43;;;;;;;3.60;1.70;;;22.00;97.20;;;;;;4954857;29;20687;-76
2023/09/05 06:35:09;;;;;;;3.97;1.40;;;22.10;97.20;;;;;;4953536;28;20180;-76
2023/09/05 06:37:37;;;;;;;3.60;1.20;;;22.20;97.10;;;;;;4953498;28;20588;-76
2023/09/05 06:40:09;;;;;;;5.87;1.70;;;22.30;97.10;;;;;;4954086;28;21016;-76
2023/09/05 06:42:41;;;;;;;3.43;1.60;;;22.40;96.80;;;;;;4930520;29;20607;-76
2023/09/05 06:45:07;;;;;;;3.60;1.50;;;22.70;97.10;;;;;;4938630;28;20922;-76
2023/09/05 06:47:33;;;;;;;2.93;1.40;;;23.30;97.80;;;;;;4934389;29;21144;-77
2023/09/05 06:50:00;;;;;;;3.47;1.07;;;24.00;98.30;;;;;;4944425;28;20702;-76
2023/09/05 06:52:26;;;;;;;4.40;1.23;;;25.00;98.70;;;;;;4943917;29;20180;-76
2023/09/05 06:54:52;;;;;;;2.30;1.20;;;25.80;98.60;;;;;;4954421;29;21306;-76
2023/09/05 06:57:18;;;;;;;2.67;1.20;;;26.90;98.30;;;;;;4934541;28;20188;-76
2023/09/05 06:59:44;;;;;;;3.30;1.33;;;27.90;95.40;;;;;;4902856;29;20185;-76
2023/09/05 07:02:10;;;;;;;2.90;1.00;;;28.80;95.00;;;;;;4949075;28;20588;-76
2023/09/05 07:04:36;;;;;;;2.60;1.10;;;29.50;92.60;;;;;;4912565;29;20189;-76
2023/09/05 07:07:03;;;;;;;3.90;1.17;;;30.20;92.40;;;;;;4950846;28;20586;-75
2023/09/05 07:09:30;;;;;;;2.03;1.10;;;31.00;90.00;;;;;;4945963;28;20648;-75
2023/09/05 07:11:56;;;;;;;2.20;1.20;;;31.40;86.40;;;;;;4935272;28;20593;-75
2023/09/05 07:14:22;;;;;;;4.47;1.10;;;32.10;79.90;;;;;;4936511;29;20597;-74
2023/09/05 07:16:49;;;;;;;1.60;0.90;;;32.50;77.70;;;;;;4946917;28;20690;-75
2023/09/05 07:19:17;;;;;;;1.80;1.07;;;32.80;76.10;;;;;;4950178;28;20635;-74
2023/09/05 07:21:43;;;;;;;2.23;1.03;;;33.10;74.00;;;;;;4953510;28;20196;-74
2023/09/05 07:24:11;;;;;;;1.80;1.00;;;33.50;71.50;;;;;;4936286;29;20612;-74
2023/09/05 07:26:38;;;;;;;2.67;1.00;;;33.80;67.20;;;;;;4953686;29;20634;-75
2023/09/05 07:29:05;;;;;;;1.70;1.00;;;34.10;66.10;;;;;;4920992;28;20674;-74
2023/09/05 07:31:31;;;;;;;3.10;0.90;;;34.30;63.00;;;;;;4953380;28;20588;-75
2023/09/05 07:34:00;;;;;;;2.03;1.10;;;34.20;60.80;;;;;;4952775;29;20607;-75
2023/09/05 07:36:28;;;;;;;3.07;1.13;;;34.20;59.40;;;;;;4935889;29;20620;-75
2023/09/05 07:38:54;;;;;;;1.60;0.90;;;34.50;59.60;;;;;;4937830;29;20631;-75
2023/09/05 07:41:20;;;;;;;3.33;1.67;;;34.70;59.70;;;;;;4944322;28;20607;-75
2023/09/05 07:43:46;;;;;;;2.00;1.00;;;35.10;59.60;;;;;;4931171;29;20733;-75
2023/09/05 07:46:13;;;;;;;1.77;1.07;;;35.20;56.70;;;;;;4950539;28;20584;-75
2023/09/05 07:48:39;;;;;;;1.60;0.80;;;35.30;57.10;;;;;;4951647;28;20204;-75
2023/09/05 07:51:07;;;;;;;2.80;0.93;;;35.20;56.10;;;;;;4944714;29;20692;-75
2023/09/05 07:53:35;;;;;;;1.77;1.20;;;35.20;54.50;;;;;;4933663;29;20240;-74
2023/09/05 07:56:03;;;;;;;2.07;1.10;;;35.20;53.40;;;;;;4923255;29;20584;-75
2023/09/05 07:58:29;;;;;;;2.20;1.00;;;35.10;54.30;;;;;;4935452;29;20608;-74
2023/09/05 08:00:55;;;;;;;2.00;0.73;;;35.30;53.40;;;;;;4927721;29;21250;-76
2023/09/05 08:03:21;;;;;;;4.43;1.50;;;35.50;53.80;;;;;;4935899;28;20746;-74
2023/09/05 08:05:48;;;;;;;1.80;1.00;;;35.70;53.70;;;;;;4960696;28;21200;-75
2023/09/05 08:08:17;;;;;;;2.37;1.00;;;36.20;53.30;;;;;;4943921;29;20644;-75
2023/09/05 08:10:43;;;;;;;2.20;1.20;;;36.20;50.50;;;;;;4940229;29;20636;-75
2023/09/05 08:13:14;;;;;;;1.93;0.90;;;36.10;50.70;;;;;;4932102;28;20619;-75
2023/09/05 08:15:41;;;;;;;4.83;0.90;;;36.00;49.00;;;;;;4922736;29;20626;-75
2023/09/05 08:18:07;;;;;;;5.30;1.23;;;35.60;48.80;;;;;;4951732;28;20643;-75
2023/09/05 08:20:36;;;;;;;2.63;1.27;;;35.40;48.70;;;;;;4919103;29;20616;-75
2023/09/05 08:23:02;;;;;;;1.77;1.00;;;35.20;48.80;;;;;;4951205;28;20603;-75
2023/09/05 08:25:28;;;;;;;4.00;1.10;;;35.10;49.00;;;;;;4950205;28;20587;-75
2023/09/05 08:27:54;;;;;;;1.90;1.00;;;35.10;48.60;;;;;;4929155;29;20169;-75
2023/09/05 08:30:24;;;;;;;2.10;0.97;;;35.00;48.70;;;;;;4935107;28;21226;-75
2023/09/05 08:32:50;;;;;;;3.30;1.50;;;35.30;50.00;;;;;;4951247;28;20967;-75
2023/09/05 08:35:16;;;;;;;4.70;1.90;;;35.30;48.90;;;;;;4943047;28;20592;-75
2023/09/05 08:37:43;;;;;;;2.13;1.00;;;35.50;48.90;;;;;;4926991;29;20583;-75
2023/09/05 08:40:09;;;;;;;2.73;0.80;;;35.80;49.80;;;;;;4936974;28;20659;-75
2023/09/05 08:42:37;;;;;;;5.37;1.60;;;36.10;48.80;;;;;;4936083;28;20620;-75
2023/09/05 08:45:03;;;;;;;1.90;1.07;;;36.30;47.80;;;;;;4952426;28;20942;-75
2023/09/05 08:47:30;;;;;;;3.13;1.23;;;36.50;48.20;;;;;;4931723;29;20628;-75
2023/09/05 08:49:59;;;;;;;2.37;1.43;;;36.60;46.70;;;;;;4944824;28;20679;-76
2023/09/05 08:52:31;;;;;;;3.00;1.37;;;36.50;46.60;;;;;;4933499;28;20643;-73
2023/09/05 08:54:58;;;;;;;4.10;1.23;;;36.20;46.50;;;;;;4946889;28;20627;-76
2023/09/05 08:57:27;;;;;;;3.80;0.97;;;36.30;46.80;;;;;;4950002;28;20603;-74
2023/09/05 08:59:54;;;;;;;2.07;1.10;;;36.30;47.00;;;;;;4929165;29;20636;-73
2023/09/05 09:02:20;;;;;;;2.30;1.20;;;36.50;46.60;;;;;;4949042;28;20620;-74
2023/09/05 09:04:53;;;;;;;5.60;1.03;;;36.60;46.00;;;;;;4944291;28;21392;-73
2023/09/05 09:07:22;;;;;;;1.70;1.00;;;36.60;46.20;;;;;;4935014;29;20184;-74
2023/09/05 09:09:47;;;;;;;1.80;1.10;;;36.70;46.00;;;;;;4950119;28;20651;-74
2023/09/05 09:12:13;;;;;;;2.87;1.27;;;36.80;45.80;;;;;;4945278;28;20576;-74
2023/09/05 09:14:39;;;;;;;1.80;1.00;;;36.90;46.10;;;;;;4956453;28;20267;-74
2023/09/05 09:17:05;;;;;;;2.27;1.20;;;37.00;44.60;;;;;;4938787;28;20185;-74
2023/09/05 09:19:32;;;;;;;5.00;1.27;;;36.90;44.10;;;;;;4947844;28;20216;-74
2023/09/05 09:22:03;;;;;;;2.97;1.00;;;36.70;43.90;;;;;;4949275;28;20596;-74
2023/09/05 09:24:35;;;;;;;1.73;0.90;;;36.60;44.50;;;;;;4937172;29;20654;-74
2023/09/05 09:27:02;;;;;;;2.73;1.00;;;36.40;44.70;;;;;;4956299;28;20593;-74
2023/09/05 09:29:30;;;;;;;4.83;1.20;;;36.50;45.30;;;;;;4938889;28;20695;-74
2023/09/05 09:32:05;;;;;;;3.80;1.00;;;36.70;45.20;;;;;;4955876;28;20580;-74
2023/09/05 09:34:34;;;;;;;2.63;1.10;;;36.90;45.80;;;;;;4956207;28;20610;-74
2023/09/05 09:37:00;;;;;;;2.43;1.20;;;37.30;45.90;;;;;;4946379;28;20993;-74
2023/09/05 09:39:32;;;;;;;2.07;1.00;;;37.60;45.60;;;;;;4922802;28;20634;-74
2023/09/05 09:42:00;;;;;;;1.80;1.00;;;37.80;44.50;;;;;;4949075;28;21051;-73
2023/09/05 09:44:34;;;;;;;1.70;0.90;;;38.00;44.20;;;;;;4931009;28;20583;-74
2023/09/05 09:47:02;;;;;;;2.03;1.23;;;37.90;43.00;;;;;;4954756;28;20600;-74
2023/09/05 09:49:29;;;;;;;3.90;1.20;;;37.60;42.60;;;;;;4953737;28;21006;-73
2023/09/05 09:51:57;;;;;;;2.27;1.00;;;37.50;43.30;;;;;;4930369;29;20631;-73
2023/09/05 09:54:39;;;;;;;1.83;0.90;;;37.60;43.80;;;;;;4937574;29;20576;-74
2023/09/05 09:57:08;;;;;;;2.47;0.90;;;37.80;44.00;;;;;;4930004;28;20587;-74
2023/09/05 09:59:36;;;;;;;2.63;1.43;;;37.90;42.90;;;;;;4943027;29;20634;-75
2023/09/05 10:02:08;;;;;;;2.23;1.00;;;37.50;42.40;;;;;;4957150;28;20571;-74
2023/09/05 10:04:35;;;;;;;4.33;0.97;;;37.10;42.30;;;;;;4963648;28;20595;-74
2023/09/05 10:07:06;;;;;;;2.30;1.13;;;36.70;42.50;;;;;;4950247;29;20671;-74
2023/09/05 10:09:43;;;;;;;3.20;1.13;;;36.40;42.90;;;;;;4938727;28;20659;-74
2023/09/05 10:12:09;;;;;;;1.77;0.90;;;36.30;43.20;;;;;;4950242;28;20588;-74
2023/09/05 10:14:38;;;;;;;2.87;1.47;;;36.30;43.20;;;;;;4939126;29;20615;-74
2023/09/05 10:17:04;;;;;;;2.23;1.20;;;36.10;43.20;;;;;;4942284;29;20584;-74
2023/09/05 10:19:32;;;;;;;2.90;1.13;;;35.90;44.20;;;;;;4953558;28;20639;-74
2023/09/05 10:21:59;;;;;;;3.17;1.17;;;36.10;44.20;;;;;;4938285;28;21079;-74
2023/09/05 10:24:27;;;;;;;2.40;1.00;;;36.30;44.20;;;;;;4930659;28;21142;-74
2023/09/05 10:26:53;;;;;;;1.80;0.90;;;36.10;43.60;;;;;;4944297;29;20623;-75
2023/09/05 10:29:42;;;;;;;2.03;0.80;;;36.10;43.80;;;;;;4945034;28;20698;-74
2023/09/05 10:32:09;;;;;;;3.27;1.00;;;36.00;43.60;;;;;;4907838;29;20215;-75
2023/09/05 10:34:58;;;;;;;2.03;1.30;;;35.70;43.90;;;;;;4936501;29;20602;-74
2023/09/05 10:37:34;;;;;;;1.73;0.90;;;35.40;44.30;;;;;;4937616;29;20956;-74
2023/09/05 10:40:07;;;;;;;2.40;0.90;;;35.30;44.30;;;;;;4919178;29;21425;-74
2023/09/05 10:42:34;;;;;;;5.20;1.13;;;35.10;44.70;;;;;;4921713;29;20644;-75
2023/09/05 10:45:22;;;;;;;4.30;1.20;;;35.20;45.50;;;;;;4923481;28;20755;-74
2023/09/05 10:47:53;;;;;;;2.13;0.70;;;35.20;45.50;;;;;;4949855;28;20628;-75
2023/09/05 10:50:20;;;;;;;2.80;1.00;;;35.50;45.50;;;;;;4931474;28;20647;-77
2023/09/05 10:53:11;;;;;;;3.67;1.40;;;35.60;45.70;;;;;;4925800;29;20592;-78
2023/09/05 10:55:44;;;;;;;2.30;1.00;;;35.90;46.10;;;;;;4941845;28;20592;-78
2023/09/05 10:58:54;;;;;;;3.17;0.90;;;36.20;45.60;;;;;;4931980;29;20591;-79
2023/09/05 11:01:29;;;;;;;2.20;1.23;;;36.00;44.30;;;;;;4929942;29;20620;-79
2023/09/05 11:04:10;;;;;;;2.37;0.90;;;36.00;44.70;;;;;;4949002;28;20603;-78
2023/09/05 11:06:43;;;;;;;2.33;0.80;;;35.90;44.30;;;;;;4938204;28;20583;-78
2023/09/05 11:09:08;;;;;;;2.17;1.00;;;35.90;44.90;;;;;;4936449;29;20652;-78
2023/09/05 11:11:36;;;;;;;1.97;0.90;;;35.90;45.00;;;;;;4947548;28;20646;-79
2023/09/05 11:14:03;;;;;;;2.90;0.93;;;35.90;44.80;;;;;;4936846;29;20180;-78
2023/09/05 11:16:46;;;;;;;2.17;0.90;;;35.90;45.10;;;;;;4952953;28;20596;-78
2023/09/05 11:19:32;;;;;;;1.47;0.80;;;36.00;45.00;;;;;;4948391;28;20636;-77
2023/09/05 11:22:17;;;;;;;3.03;1.10;;;36.10;45.10;;;;;;4923229;29;20607;-78
2023/09/05 11:24:47;;;;;;;1.50;0.73;;;36.00;44.80;;;;;;4948089;28;20659;-78
2023/09/05 11:27:30;;;;;;;1.50;0.80;;;35.90;44.60;;;;;;4964642;28;20684;-78
2023/09/05 11:30:02;;;;;;;1.50;0.90;;;35.90;44.90;;;;;;4914151;29;20656;-78
2023/09/05 11:32:34;;;;;;;2.00;1.10;;;35.90;45.00;;;;;;4937675;28;20584;-77
2023/09/05 11:35:01;;;;;;;2.33;0.90;;;35.90;45.00;;;;;;4947370;28;20681;-78
2023/09/05 11:37:28;;;;;;;1.93;0.90;;;35.90;44.50;;;;;;4924470;29;20595;-78
2023/09/05 11:39:54;;;;;;;1.60;0.90;;;35.70;44.10;;;;;;4936133;29;20624;-78
2023/09/05 11:42:23;;;;;;;5.10;1.13;;;35.50;44.00;;;;;;4953406;28;20592;-78
2023/09/05 11:44:49;;;;;;;6.70;1.00;;;35.30;44.20;;;;;;4945463;28;20560;-78
2023/09/05 11:47:16;;;;;;;1.97;0.97;;;35.10;44.20;;;;;;4936059;28;20588;-78
2023/09/05 11:49:43;;;;;;;2.30;1.00;;;35.00;44.70;;;;;;4951745;28;20655;-78
2023/09/05 11:52:11;;;;;;;5.33;0.97;;;35.00;44.80;;;;;;4933887;28;20982;-78
2023/09/05 11:54:39;;;;;;;2.80;1.00;;;34.90;44.50;;;;;;4923487;29;20600;-78
2023/09/05 11:57:06;;;;;;;2.30;0.80;;;34.70;44.60;;;;;;4935359;29;20587;-75
2023/09/05 11:59:32;;;;;;;1.60;0.70;;;34.60;45.00;;;;;;4945579;28;20712;-76
2023/09/05 12:02:04;;;;;;;1.90;0.90;;;34.60;45.40;;;;;;4934645;28;20588;-76
2023/09/05 12:04:34;;;;;;;2.10;0.90;;;34.60;45.50;;;;;;4932751;29;20176;-76
2023/09/05 12:07:00;;;;;;;1.90;1.00;;;34.70;45.70;;;;;;4934999;29;20600;-76
2023/09/05 12:09:29;;;;;;;1.60;0.83;;;34.70;45.90;;;;;;4926890;29;20767;-76
2023/09/05 12:12:07;;;;;;;2.57;0.90;;;34.90;45.90;;;;;;4948527;28;20929;-76
2023/09/05 12:14:54;;;;;;;1.50;0.83;;;34.70;45.50;;;;;;4949074;28;20591;-76
2023/09/05 12:17:25;;;;;;;2.80;0.90;;;34.60;45.70;;;;;;4952773;28;20655;-75
2023/09/05 12:19:55;;;;;;;2.77;1.00;;;34.70;45.80;;;;;;4947342;28;21092;-77
2023/09/05 12:22:24;;;;;;;2.30;1.00;;;34.70;45.70;;;;;;4967673;28;20571;-75
2023/09/05 12:25:14;;;;;;;1.60;0.80;;;34.70;45.90;;;;;;4949086;28;20580;-75
2023/09/05 12:27:42;;;;;;;1.63;0.80;;;34.60;45.70;;;;;;4949207;28;20596;-75
2023/09/05 12:30:22;;;;;;;2.40;0.87;;;34.50;45.70;;;;;;4922346;29;21109;-76
2023/09/05 12:32:48;;;;;;;1.93;0.90;;;34.40;45.70;;;;;;4936830;29;20599;-75
2023/09/05 12:35:14;;;;;;;3.87;0.80;;;34.10;45.90;;;;;;4938487;29;20588;-76
2023/09/05 12:37:40;;;;;;;2.20;1.00;;;33.90;45.90;;;;;;4934592;29;20204;-76
2023/09/05 12:40:06;;;;;;;1.80;0.80;;;33.70;46.20;;;;;;4935638;29;21139;-76
2023/09/05 12:42:32;;;;;;;2.17;0.90;;;33.50;46.30;;;;;;4945284;28;20210;-77
2023/09/05 12:44:58;;;;;;;1.93;1.00;;;33.50;46.70;;;;;;4955094;28;20590;-76
2023/09/05 12:47:24;;;;;;;2.63;1.03;;;33.50;47.00;;;;;;4922274;29;20617;-77
2023/09/05 12:49:51;;;;;;;4.20;1.00;;;33.50;47.00;;;;;;4933582;29;20215;-77
2023/09/05 12:52:20;;;;;;;2.53;1.10;;;33.50;47.10;;;;;;4957532;28;20192;-76
2023/09/05 12:54:48;;;;;;;2.17;0.80;;;33.50;46.90;;;;;;4941498;29;20599;-77
2023/09/05 12:57:14;;;;;;;1.80;0.90;;;33.40;47.10;;;;;;4957718;28;20590;-77